createdAt,value
2022-11-16T00:03:12.706Z,100.00
2022-11-16T00:06:39.943Z,100.00
2022-11-16T00:10:08.699Z,100.00
2022-11-16T00:13:36.843Z,100.00
2022-11-16T00:17:04.694Z,100.00
2022-11-16T00:20:31.496Z,100.00
2022-11-16T00:23:58.714Z,100.00
2022-11-16T00:27:25.812Z,100.00
2022-11-16T00:31:01.201Z,100.00
2022-11-16T00:34:27.972Z,100.00
2022-11-16T00:37:55.431Z,100.00
2022-11-16T00:41:22.717Z,100.00
2022-11-16T00:44:49.439Z,100.00
2022-11-16T00:48:16.392Z,100.00
2022-11-16T00:51:43.164Z,100.00
2022-11-16T00:55:11.374Z,100.00
2022-11-16T00:58:38.578Z,100.00
2022-11-16T01:02:07.974Z,100.00
2022-11-16T01:05:35.638Z,100.00
2022-11-16T01:09:02.804Z,100.00
2022-11-16T01:12:29.624Z,100.00
2022-11-16T01:15:56.852Z,100.00
2022-11-16T01:19:23.875Z,100.00
2022-11-16T01:22:50.722Z,100.00
2022-11-16T01:26:17.622Z,100.00
2022-11-16T01:29:45.379Z,100.00
2022-11-16T01:33:12.580Z,100.00
2022-11-16T01:36:39.448Z,100.00
2022-11-16T01:40:08.622Z,100.00
2022-11-16T01:43:55.163Z,100.00
2022-11-16T01:47:23.855Z,100.00
2022-11-16T01:50:53.148Z,100.00
2022-11-16T01:54:20.339Z,100.00
2022-11-16T01:57:57.976Z,100.00
2022-11-16T02:01:25.732Z,100.00
2022-11-16T02:04:55.918Z,100.00
2022-11-16T02:09:06.002Z,100.00
2022-11-16T02:13:01.146Z,100.00
2022-11-16T02:16:58.904Z,100.00
2022-11-16T02:21:08.985Z,100.00
2022-11-16T02:24:49.603Z,100.00
2022-11-16T02:28:31.521Z,100.00
2022-11-16T02:32:04.102Z,100.00
2022-11-16T02:35:35.037Z,100.00
2022-11-16T02:39:08.084Z,100.00
2022-11-16T02:42:40.606Z,100.00
2022-11-16T02:46:11.072Z,100.00
2022-11-16T02:49:43.478Z,100.00
2022-11-16T02:53:10.687Z,100.00
2022-11-16T02:56:51.538Z,100.00
2022-11-16T03:00:26.050Z,100.00
2022-11-16T03:03:59.378Z,100.00
2022-11-16T03:07:33.776Z,100.00
2022-11-16T03:11:23.260Z,100.00
2022-11-16T03:14:52.196Z,100.00
2022-11-16T03:18:20.861Z,100.00
2022-11-16T03:21:52.670Z,100.00
2022-11-16T03:25:22.263Z,100.00
2022-11-16T03:28:58.999Z,100.00
2022-11-16T03:32:31.677Z,100.00
2022-11-16T03:36:04.568Z,100.00
2022-11-16T03:39:35.917Z,100.00
2022-11-16T03:43:05.414Z,100.00
2022-11-16T03:46:33.596Z,100.00
2022-11-16T03:50:00.426Z,100.00
2022-11-16T03:53:29.639Z,100.00
2022-11-16T03:56:56.747Z,100.00
2022-11-16T04:00:24.520Z,100.00
2022-11-16T04:03:53.598Z,100.00
2022-11-16T04:07:38.390Z,100.00
2022-11-16T04:11:23.574Z,100.00
2022-11-16T04:15:08.475Z,100.00
2022-11-16T04:18:53.887Z,100.00
2022-11-16T04:22:44.205Z,100.00
2022-11-16T04:26:13.782Z,100.00
2022-11-16T04:29:41.544Z,100.00
2022-11-16T04:33:25.901Z,100.00
2022-11-16T04:37:10.378Z,100.00
2022-11-16T04:40:38.443Z,100.00
2022-11-16T04:44:05.519Z,100.00
2022-11-16T04:47:34.547Z,100.00
2022-11-16T04:51:02.394Z,100.00
2022-11-16T04:54:29.345Z,100.00
2022-11-16T04:57:56.276Z,100.00
2022-11-16T05:01:43.822Z,100.00
2022-11-16T05:08:58.947Z,100.00
2022-11-16T05:12:28.475Z,100.00
2022-11-16T05:15:57.888Z,100.00
2022-11-16T05:19:43.508Z,100.00
2022-11-16T05:23:31.230Z,100.00
2022-11-16T05:27:01.508Z,100.00
2022-11-16T05:30:29.725Z,99.99
2022-11-16T05:33:57.764Z,100.00
2022-11-16T05:37:26.918Z,100.00
2022-11-16T05:40:54.317Z,100.00
2022-11-16T05:44:21.791Z,100.00
2022-11-16T05:47:49.256Z,99.95
2022-11-16T05:51:16.311Z,100.00
2022-11-16T05:54:43.213Z,99.96
2022-11-16T05:58:10.728Z,100.00
2022-11-16T06:01:38.687Z,100.00
2022-11-16T06:05:06.271Z,99.97
2022-11-16T06:08:34.099Z,99.93
2022-11-16T06:12:03.344Z,99.75
2022-11-16T06:15:30.865Z,99.70
2022-11-16T06:20:59.522Z,99.71
2022-11-16T06:24:26.454Z,99.58
2022-11-16T06:27:53.413Z,99.34
2022-11-16T06:31:20.333Z,99.03
2022-11-16T06:34:47.266Z,99.02
2022-11-16T06:38:18.706Z,98.76
2022-11-16T06:41:46.960Z,98.47
2022-11-16T06:45:14.392Z,98.51
2022-11-16T06:48:44.655Z,98.15
2022-11-16T06:52:13.142Z,98.05
2022-11-16T06:55:40.234Z,98.32
2022-11-16T06:59:07.085Z,98.32
2022-11-16T07:02:34.685Z,98.05
2022-11-16T07:06:05.939Z,97.73
2022-11-16T07:09:32.736Z,97.14
2022-11-16T07:13:02.429Z,97.02
2022-11-16T07:16:30.054Z,97.28
2022-11-16T07:19:58.643Z,96.95
2022-11-16T07:23:26.049Z,96.73
2022-11-16T07:26:53.083Z,96.85
2022-11-16T07:30:22.324Z,96.30
2022-11-16T07:34:05.249Z,96.42
2022-11-16T07:37:40.843Z,96.29
2022-11-16T07:41:10.628Z,95.85
2022-11-16T07:44:42.546Z,96.14
2022-11-16T07:48:10.038Z,95.58
2022-11-16T07:52:00.222Z,95.22
2022-11-16T07:55:55.906Z,95.52
2022-11-16T07:59:22.933Z,95.32
2022-11-16T08:02:50.104Z,95.17
2022-11-16T08:06:24.354Z,94.56
2022-11-16T08:09:52.183Z,95.06
2022-11-16T08:13:20.333Z,95.12
2022-11-16T08:16:47.581Z,94.31
2022-11-16T08:20:15.442Z,93.89
2022-11-16T08:23:42.551Z,93.50
2022-11-16T08:27:09.367Z,93.59
2022-11-16T08:30:36.540Z,93.20
2022-11-16T08:34:03.660Z,93.35
2022-11-16T08:37:32.126Z,93.02
2022-11-16T08:40:59.499Z,93.43
2022-11-16T08:44:26.553Z,93.09
2022-11-16T08:48:03.501Z,92.65
2022-11-16T08:51:31.770Z,92.96
2022-11-16T08:55:03.322Z,92.99
2022-11-16T08:58:30.429Z,93.65
2022-11-16T09:01:57.440Z,93.59
2022-11-16T09:05:24.692Z,94.12
2022-11-16T09:08:51.628Z,94.33
2022-11-16T09:12:18.310Z,94.54
2022-11-16T09:15:45.552Z,94.74
2022-11-16T09:19:12.445Z,94.58
2022-11-16T09:22:39.676Z,94.45
2022-11-16T09:26:07.653Z,94.51
2022-11-16T09:29:34.330Z,94.75
2022-11-16T09:33:02.149Z,94.89
2022-11-16T09:36:29.929Z,94.90
2022-11-16T09:39:57.999Z,94.39
2022-11-16T09:43:42.598Z,94.49
2022-11-16T09:47:19.608Z,94.52
2022-11-16T09:50:50.293Z,93.99
2022-11-16T09:54:21.229Z,93.68
2022-11-16T09:57:48.994Z,93.71
2022-11-16T10:01:27.396Z,93.75
2022-11-16T10:04:58.792Z,92.72
2022-11-16T10:08:37.003Z,93.29
2022-11-16T10:12:22.307Z,93.21
2022-11-16T10:16:00.988Z,92.93
2022-11-16T10:19:37.692Z,92.30
2022-11-16T10:23:16.795Z,92.43
2022-11-16T10:26:51.684Z,92.27
2022-11-16T10:30:22.374Z,92.75
2022-11-16T10:33:54.226Z,92.91
2022-11-16T10:37:21.968Z,92.89
2022-11-16T10:40:52.916Z,92.53
2022-11-16T10:44:26.822Z,92.37
2022-11-16T10:47:58.343Z,92.30
2022-11-16T10:51:25.545Z,91.96
2022-11-16T10:54:52.740Z,91.65
2022-11-16T10:58:19.457Z,91.83
2022-11-16T11:01:50.947Z,92.08
2022-11-16T11:05:21.239Z,92.33
2022-11-16T11:08:48.147Z,91.62
2022-11-16T11:12:36.903Z,91.30
2022-11-16T11:16:20.584Z,91.57
2022-11-16T11:19:47.529Z,91.41
2022-11-16T11:23:21.268Z,91.60
2022-11-16T11:26:53.821Z,91.87
2022-11-16T11:30:23.230Z,91.96
2022-11-16T11:33:54.702Z,91.22
2022-11-16T11:37:26.450Z,91.21
2022-11-16T11:41:00.579Z,90.64
2022-11-16T11:44:37.541Z,90.68
2022-11-16T11:48:10.119Z,90.39
2022-11-16T11:51:41.149Z,90.24
2022-11-16T11:55:15.818Z,90.81
2022-11-16T11:58:44.204Z,90.74
2022-11-16T12:02:29.843Z,90.32
2022-11-16T12:06:08.479Z,90.35
2022-11-16T12:09:43.954Z,90.00
2022-11-16T12:13:30.660Z,89.79
2022-11-16T12:17:08.025Z,90.71
2022-11-16T12:20:45.952Z,89.64
2022-11-16T12:24:26.122Z,89.59
2022-11-16T12:28:10.413Z,89.81
2022-11-16T12:32:26.046Z,89.87
2022-11-16T12:36:01.830Z,89.24
2022-11-16T12:39:35.603Z,89.51
2022-11-16T12:43:12.426Z,89.84
2022-11-16T12:46:48.015Z,89.85
2022-11-16T12:50:30.867Z,89.40
2022-11-16T12:54:27.451Z,89.67
2022-11-16T12:58:08.057Z,89.17
2022-11-16T13:01:42.274Z,89.26
2022-11-16T13:05:19.091Z,89.21
2022-11-16T13:08:53.672Z,89.61
2022-11-16T13:12:24.527Z,89.17
2022-11-16T13:15:52.061Z,89.19
2022-11-16T13:19:19.619Z,89.27
2022-11-16T13:22:54.033Z,89.34
2022-11-16T13:26:30.237Z,89.62
2022-11-16T13:30:05.200Z,89.39
2022-11-16T13:33:46.245Z,89.01
2022-11-16T13:37:45.178Z,88.26
2022-11-16T13:41:29.949Z,89.06
2022-11-16T13:45:06.522Z,88.79
2022-11-16T13:48:36.161Z,88.08
2022-11-16T13:52:22.644Z,87.10
2022-11-16T14:05:43.628Z,87.91
2022-11-16T14:09:43.935Z,87.54
2022-11-16T14:13:39.811Z,87.52
2022-11-16T14:17:08.307Z,87.30
2022-11-16T14:20:50.057Z,87.28
2022-11-16T14:24:29.641Z,86.94
2022-11-16T14:28:01.289Z,87.27
2022-11-16T14:31:30.269Z,87.02
2022-11-16T14:34:59.499Z,87.17
2022-11-16T14:38:33.311Z,87.54
2022-11-16T14:42:03.941Z,87.77
2022-11-16T14:45:33.349Z,87.92
2022-11-16T14:49:03.064Z,87.97
2022-11-16T14:52:36.524Z,88.03
2022-11-16T14:56:12.062Z,88.14
2022-11-16T14:59:38.936Z,88.67
2022-11-16T15:03:07.104Z,88.63
2022-11-16T15:06:40.183Z,88.89
2022-11-16T15:10:15.703Z,89.04
2022-11-16T15:13:46.463Z,88.76
2022-11-16T15:17:19.435Z,89.12
2022-11-16T15:20:52.467Z,89.03
2022-11-16T15:24:31.772Z,89.18
2022-11-16T15:27:58.475Z,89.44
2022-11-16T15:31:26.415Z,89.65
2022-11-16T15:34:55.676Z,89.47
2022-11-16T15:38:24.781Z,89.34
2022-11-16T15:41:52.561Z,89.95
2022-11-16T15:45:25.770Z,90.02
2022-11-16T15:48:53.568Z,90.07
2022-11-16T15:52:43.853Z,90.11
2022-11-16T15:56:16.222Z,90.54
2022-11-16T15:59:48.768Z,90.66
2022-11-16T16:03:27.279Z,90.59
2022-11-16T16:06:56.586Z,91.07
2022-11-16T16:10:26.419Z,90.90
2022-11-16T16:14:02.348Z,91.07
2022-11-16T16:17:31.533Z,91.22
2022-11-16T16:20:59.141Z,90.95
2022-11-16T16:24:45.424Z,90.99
2022-11-16T16:28:14.938Z,91.01
2022-11-16T16:31:42.363Z,91.07
2022-11-16T16:35:18.708Z,91.09
2022-11-16T16:38:49.871Z,91.08
2022-11-16T16:42:25.072Z,91.08
2022-11-16T16:45:53.531Z,90.58
2022-11-16T16:49:21.107Z,90.61
2022-11-16T16:52:48.395Z,90.52
2022-11-16T16:56:20.212Z,90.47
2022-11-16T16:59:48.654Z,90.34
2022-11-16T17:03:16.468Z,89.97
2022-11-16T17:06:46.629Z,89.87
2022-11-16T17:10:15.908Z,90.23
2022-11-16T17:13:44.569Z,90.20
2022-11-16T17:17:13.328Z,90.41
2022-11-16T17:20:45.301Z,90.47
2022-11-16T17:24:14.054Z,90.73
2022-11-16T17:27:41.663Z,90.52
2022-11-16T17:31:11.748Z,90.75
2022-11-16T17:34:41.463Z,90.71
2022-11-16T17:38:07.183Z,90.69
2022-11-16T17:41:34.399Z,90.95
2022-11-16T17:45:01.412Z,91.27
2022-11-16T17:48:28.653Z,91.27
2022-11-16T17:51:56.107Z,91.47
2022-11-16T17:55:24.232Z,91.34
2022-11-16T17:58:52.921Z,91.65
2022-11-16T18:02:21.698Z,91.51
2022-11-16T18:05:50.702Z,91.46
2022-11-16T18:09:20.572Z,91.58
2022-11-16T18:12:49.075Z,91.65
2022-11-16T18:16:19.177Z,91.80
2022-11-16T18:19:47.321Z,91.96
2022-11-16T18:23:15.070Z,91.72
2022-11-16T18:26:43.839Z,91.88
2022-11-16T18:30:14.588Z,91.90
2022-11-16T18:33:43.177Z,91.86
2022-11-16T18:37:10.781Z,91.71
2022-11-16T18:40:38.613Z,91.64
2022-11-16T18:44:15.630Z,91.27
2022-11-16T18:47:44.899Z,91.18
2022-11-16T18:51:15.272Z,90.92
2022-11-16T18:54:44.610Z,91.04
2022-11-16T18:58:28.926Z,90.90
2022-11-16T19:02:02.254Z,90.30
2022-11-16T19:05:31.060Z,89.81
2022-11-16T19:09:00.638Z,89.23
2022-11-16T19:12:29.678Z,89.18
2022-11-16T19:16:01.001Z,89.02
2022-11-16T19:19:30.618Z,89.22
2022-11-16T19:23:00.532Z,88.38
2022-11-16T19:26:30.584Z,88.00
2022-11-16T19:29:59.806Z,87.02
2022-11-16T19:33:29.134Z,86.80
2022-11-16T19:36:58.412Z,87.30
2022-11-16T19:40:26.737Z,87.50
2022-11-16T19:43:58.827Z,87.22
2022-11-16T19:47:27.475Z,87.10
2022-11-16T19:50:56.170Z,87.07
2022-11-16T19:54:25.648Z,87.37
2022-11-16T19:57:54.340Z,87.09
2022-11-16T20:01:25.594Z,87.19
2022-11-16T20:04:54.508Z,87.13
2022-11-16T20:08:22.995Z,87.45
2022-11-16T20:11:51.197Z,87.08
2022-11-16T20:15:19.537Z,87.26
2022-11-16T20:18:47.903Z,87.31
2022-11-16T20:22:15.720Z,87.05
2022-11-16T20:25:44.380Z,87.22
2022-11-16T20:29:13.292Z,86.89
2022-11-16T20:32:40.696Z,87.33
2022-11-16T20:36:10.338Z,87.09
2022-11-16T20:39:37.439Z,87.27
2022-11-16T20:43:04.304Z,87.29
2022-11-16T20:46:33.075Z,86.99
2022-11-16T20:50:00.506Z,87.16
2022-11-16T21:02:38.744Z,86.70
2022-11-16T21:06:08.583Z,86.78
2022-11-16T21:09:53.833Z,86.63
2022-11-16T21:13:39.908Z,86.80
2022-11-16T21:17:06.931Z,86.83
2022-11-16T21:20:33.907Z,86.78
2022-11-16T21:24:01.179Z,86.49
2022-11-16T21:27:28.233Z,86.69
2022-11-16T21:30:59.390Z,86.56
2022-11-16T21:34:27.865Z,87.01
2022-11-16T21:37:54.639Z,86.90
2022-11-16T21:41:24.359Z,86.76
2022-11-16T21:44:51.057Z,86.81
2022-11-16T21:48:18.097Z,86.74
2022-11-16T21:51:44.916Z,86.57
2022-11-16T21:55:12.181Z,86.64
2022-11-16T21:58:39.492Z,86.84
2022-11-16T22:02:06.444Z,86.96
2022-11-16T22:05:50.637Z,87.09
2022-11-16T22:09:17.322Z,86.66
2022-11-16T22:12:44.005Z,86.87
2022-11-16T22:16:15.120Z,86.75
2022-11-16T22:19:41.972Z,87.01
2022-11-16T22:23:08.608Z,86.91
2022-11-16T22:26:35.448Z,86.86
2022-11-16T22:30:02.339Z,86.90
2022-11-16T22:33:29.483Z,87.18
2022-11-16T22:36:56.622Z,87.19
2022-11-16T22:40:23.808Z,87.22
2022-11-16T22:43:50.753Z,87.19
2022-11-16T22:47:17.399Z,87.33
2022-11-16T22:50:44.408Z,87.51
2022-11-16T22:54:13.175Z,87.34
2022-11-16T22:57:39.875Z,87.46
2022-11-16T23:01:08.437Z,87.36
2022-11-16T23:04:35.251Z,87.47
2022-11-16T23:08:02.155Z,87.66
2022-11-16T23:11:47.211Z,87.48
2022-11-16T23:15:33.220Z,87.45
2022-11-16T23:19:01.231Z,87.38
2022-11-16T23:22:45.418Z,87.43
2022-11-16T23:26:34.129Z,87.34
2022-11-16T23:30:03.135Z,87.39
2022-11-16T23:33:44.788Z,87.49
2022-11-16T23:37:11.747Z,87.50
2022-11-16T23:40:40.197Z,87.50
2022-11-16T23:44:07.224Z,87.49
2022-11-16T23:47:34.325Z,87.26
2022-11-16T23:51:01.195Z,87.23
2022-11-16T23:54:28.214Z,87.40
2022-11-16T23:57:54.998Z,87.38
